createdAt,value
2018-03-24T00:00:19.886Z,6.70
2018-03-24T00:01:25.189Z,6.70
2018-03-24T00:02:31.167Z,6.60
2018-03-24T00:03:36.336Z,6.70
2018-03-24T00:04:41.842Z,6.70
2018-03-24T00:05:47.224Z,6.70
2018-03-24T00:06:53.280Z,6.70
2018-03-24T00:07:59.424Z,6.70
2018-03-24T00:09:05.740Z,6.70
2018-03-24T00:10:11.355Z,6.70
2018-03-24T00:11:16.974Z,6.70
2018-03-24T00:12:22.382Z,6.70
2018-03-24T00:13:29.924Z,6.60
2018-03-24T00:14:35.646Z,6.70
2018-03-24T00:15:41.017Z,6.70
2018-03-24T00:16:46.276Z,6.60
2018-03-24T00:17:52.319Z,6.60
2018-03-24T00:18:57.318Z,6.60
2018-03-24T00:20:03.669Z,6.60
2018-03-24T00:21:09.286Z,6.60
2018-03-24T00:22:18.294Z,6.60
2018-03-24T00:23:23.662Z,6.60
2018-03-24T00:24:29.708Z,6.60
2018-03-24T00:25:34.881Z,6.60
2018-03-24T00:26:40.096Z,6.60
2018-03-24T00:27:46.242Z,6.50
2018-03-24T00:28:52.517Z,6.50
2018-03-24T00:29:58.172Z,6.50
2018-03-24T00:31:04.285Z,6.40
2018-03-24T00:32:10.694Z,6.40
2018-03-24T00:33:16.130Z,6.40
2018-03-24T00:34:22.118Z,6.40
2018-03-24T00:35:29.766Z,6.30
2018-03-24T00:36:35.388Z,6.30
2018-03-24T00:37:40.766Z,6.30
2018-03-24T00:38:46.048Z,6.20
2018-03-24T00:39:51.378Z,6.20
2018-03-24T00:40:56.876Z,6.20
2018-03-24T00:43:19.209Z,6.10
2018-03-24T00:44:25.569Z,6.10
2018-03-24T00:45:32.091Z,6.10
2018-03-24T00:46:37.473Z,6.10
2018-03-24T00:47:43.985Z,6.10
2018-03-24T00:48:49.761Z,6.00
2018-03-24T00:49:55.417Z,6.00
2018-03-24T00:51:00.686Z,5.90
2018-03-24T00:52:06.087Z,5.90
2018-03-24T00:53:11.580Z,5.90
2018-03-24T00:54:17.777Z,5.80
2018-03-24T00:55:23.383Z,5.80
2018-03-24T00:56:29.697Z,5.70
2018-03-24T00:57:35.343Z,5.70
2018-03-24T00:58:40.855Z,5.60
2018-03-24T00:59:46.120Z,5.50
2018-03-24T01:00:56.210Z,5.50
2018-03-24T01:02:01.608Z,5.50
2018-03-24T01:03:07.913Z,5.50
2018-03-24T01:04:13.291Z,5.50
2018-03-24T01:05:19.485Z,5.50
2018-03-24T01:06:24.941Z,5.50
2018-03-24T01:07:31.128Z,5.50
2018-03-24T01:08:37.309Z,5.40
2018-03-24T01:09:42.713Z,5.40
2018-03-24T01:10:49.016Z,5.40
2018-03-24T01:11:54.634Z,5.40
2018-03-24T01:12:59.982Z,5.40
2018-03-24T01:14:05.504Z,5.40
2018-03-24T01:15:10.742Z,5.40
2018-03-24T01:16:16.109Z,5.40
2018-03-24T01:17:21.837Z,5.40
2018-03-24T01:18:27.909Z,5.40
2018-03-24T01:19:33.541Z,5.40
2018-03-24T01:20:39.272Z,5.30
2018-03-24T01:21:45.543Z,5.30
2018-03-24T01:22:51.768Z,5.20
2018-03-24T01:23:56.891Z,5.20
2018-03-24T01:25:02.172Z,5.20
2018-03-24T01:26:07.549Z,5.20
2018-03-24T01:27:12.853Z,5.10
2018-03-24T01:28:18.238Z,5.10
2018-03-24T01:29:23.602Z,5.20
2018-03-24T01:30:29.561Z,5.10
2018-03-24T01:31:34.742Z,5.10
2018-03-24T01:32:40.213Z,5.10
2018-03-24T01:33:45.455Z,5.00
2018-03-24T01:34:50.835Z,5.00
2018-03-24T01:35:56.127Z,4.90
2018-03-24T01:37:01.260Z,4.90
2018-03-24T01:38:06.631Z,4.90
2018-03-24T01:39:11.841Z,4.90
2018-03-24T01:40:17.208Z,4.80
2018-03-24T01:41:23.427Z,4.80
2018-03-24T01:42:28.894Z,4.80
2018-03-24T01:43:34.726Z,4.80
2018-03-24T01:44:40.124Z,4.80
2018-03-24T01:45:45.286Z,4.80
2018-03-24T01:46:50.475Z,4.80
2018-03-24T01:47:56.162Z,4.80
2018-03-24T01:49:01.872Z,4.70
2018-03-24T01:50:06.915Z,4.70
2018-03-24T01:51:12.105Z,4.70
2018-03-24T01:52:16.973Z,4.70
2018-03-24T01:53:23.942Z,4.70
2018-03-24T01:54:30.456Z,4.60
2018-03-24T01:55:35.166Z,4.60
2018-03-24T01:56:40.471Z,4.50
2018-03-24T01:57:46.103Z,4.50
2018-03-24T01:58:51.099Z,4.50
2018-03-24T01:59:56.169Z,4.50
2018-03-24T02:01:01.690Z,4.40
2018-03-24T02:02:06.756Z,4.30
2018-03-24T02:03:11.639Z,4.40
2018-03-24T02:04:16.574Z,4.40
2018-03-24T02:05:21.804Z,4.30
2018-03-24T02:06:26.876Z,4.20
2018-03-24T02:07:32.654Z,4.20
2018-03-24T02:08:38.316Z,4.20
2018-03-24T02:09:43.378Z,4.20
2018-03-24T02:10:48.658Z,4.00
2018-03-24T02:11:53.923Z,3.90
2018-03-24T02:12:59.129Z,3.90
2018-03-24T02:14:03.959Z,3.90
2018-03-24T02:15:08.592Z,4.00
2018-03-24T02:16:13.243Z,3.90
2018-03-24T02:17:18.669Z,3.90
2018-03-24T02:18:23.706Z,3.80
2018-03-24T02:19:30.022Z,3.90
2018-03-24T02:20:35.098Z,3.90
2018-03-24T02:21:40.103Z,3.90
2018-03-24T02:22:45.634Z,3.90
2018-03-24T02:23:51.390Z,3.90
2018-03-24T02:24:56.524Z,3.80
2018-03-24T02:26:02.615Z,3.80
2018-03-24T02:27:07.429Z,3.70
2018-03-24T02:28:12.052Z,3.70
2018-03-24T02:29:16.779Z,3.70
2018-03-24T02:30:22.345Z,3.70
2018-03-24T02:31:27.586Z,3.60
2018-03-24T02:32:32.057Z,3.60
2018-03-24T02:33:38.301Z,3.60
2018-03-24T02:34:43.246Z,3.60
2018-03-24T02:35:48.772Z,3.60
2018-03-24T02:36:54.271Z,3.60
2018-03-24T02:37:59.836Z,3.60
2018-03-24T02:39:05.048Z,3.60
2018-03-24T02:40:10.036Z,3.60
2018-03-24T02:41:14.829Z,3.60
2018-03-24T02:42:19.530Z,3.50
2018-03-24T02:43:25.122Z,3.50
2018-03-24T02:44:31.260Z,3.50
2018-03-24T02:45:37.191Z,3.50
2018-03-24T02:46:42.763Z,3.50
2018-03-24T02:47:50.207Z,3.50
2018-03-24T02:48:55.770Z,3.40
2018-03-24T02:50:04.194Z,3.40
2018-03-24T02:51:11.865Z,3.40
2018-03-24T02:52:19.177Z,3.40
2018-03-24T02:53:25.951Z,3.40
2018-03-24T02:54:35.286Z,3.40
2018-03-24T02:55:41.513Z,3.40
2018-03-24T02:56:47.425Z,3.40
2018-03-24T02:57:52.136Z,3.40
2018-03-24T02:58:56.777Z,3.40
2018-03-24T03:00:01.286Z,3.40
2018-03-24T03:01:05.929Z,3.40
2018-03-24T03:02:12.228Z,3.40
2018-03-24T03:03:16.969Z,3.30
2018-03-24T03:04:21.575Z,3.40
2018-03-24T03:05:27.005Z,3.40
2018-03-24T03:06:31.803Z,3.40
2018-03-24T03:07:36.422Z,3.30
2018-03-24T03:08:41.155Z,3.30
2018-03-24T03:09:45.838Z,3.30
2018-03-24T03:10:50.270Z,3.30
2018-03-24T03:11:54.832Z,3.30
2018-03-24T03:13:00.909Z,3.30
2018-03-24T03:14:05.606Z,3.30
2018-03-24T03:15:10.758Z,3.20
2018-03-24T03:16:15.324Z,3.20
2018-03-24T03:17:19.868Z,3.20
2018-03-24T03:18:24.857Z,3.20
2018-03-24T03:19:30.045Z,3.20
2018-03-24T03:20:34.879Z,3.10
2018-03-24T03:21:45.293Z,3.10
2018-03-24T03:22:49.961Z,3.10
2018-03-24T03:23:54.558Z,3.00
2018-03-24T03:25:00.327Z,3.10
2018-03-24T03:26:04.946Z,3.10
2018-03-24T03:27:09.465Z,3.00
2018-03-24T03:28:14.387Z,3.10
2018-03-24T03:29:19.986Z,3.10
2018-03-24T03:30:24.506Z,3.10
2018-03-24T03:31:30.461Z,3.10
2018-03-24T03:32:34.978Z,3.10
2018-03-24T03:33:39.711Z,3.10
2018-03-24T03:34:45.425Z,3.10
2018-03-24T03:35:49.787Z,3.10
2018-03-24T03:36:54.273Z,3.10
2018-03-24T03:37:59.258Z,3.10
2018-03-24T03:39:03.854Z,3.10
2018-03-24T03:40:08.214Z,3.10
2018-03-24T03:41:13.390Z,3.00
2018-03-24T03:42:17.968Z,3.00
2018-03-24T03:43:22.376Z,3.00
2018-03-24T03:44:28.191Z,3.00
2018-03-24T03:45:32.778Z,2.90
2018-03-24T03:46:37.195Z,3.00
2018-03-24T03:47:41.682Z,3.00
2018-03-24T03:48:46.297Z,3.00
2018-03-24T03:49:51.334Z,2.90
2018-03-24T03:50:55.955Z,2.90
2018-03-24T03:52:00.502Z,2.90
2018-03-24T03:53:05.777Z,2.90
2018-03-24T03:54:10.299Z,2.90
2018-03-24T03:55:14.840Z,2.90
2018-03-24T03:56:19.363Z,2.80
2018-03-24T03:57:23.894Z,2.80
2018-03-24T03:58:29.656Z,2.80
2018-03-24T03:59:34.060Z,2.70
2018-03-24T04:00:39.471Z,2.70
2018-03-24T04:01:44.042Z,2.70
2018-03-24T04:02:48.533Z,2.60
2018-03-24T04:03:53.268Z,2.60
2018-03-24T04:04:58.281Z,2.50
2018-03-24T04:06:02.935Z,2.50
2018-03-24T04:07:07.594Z,2.50
2018-03-24T04:08:12.189Z,2.40
2018-03-24T04:09:16.681Z,2.50
2018-03-24T04:10:21.903Z,2.50
2018-03-24T04:11:26.947Z,2.50
2018-03-24T04:12:31.435Z,2.50
2018-03-24T04:13:35.892Z,2.50
2018-03-24T04:14:40.577Z,2.50
2018-03-24T04:15:45.924Z,2.30
2018-03-24T04:16:50.322Z,2.30
2018-03-24T04:17:56.189Z,2.30
2018-03-24T04:19:00.836Z,2.30
2018-03-24T04:20:05.468Z,2.30
2018-03-24T04:21:10.139Z,2.30
2018-03-24T04:22:14.563Z,2.20
2018-03-24T04:23:18.887Z,2.20
2018-03-24T04:24:23.176Z,2.20
2018-03-24T04:25:27.548Z,2.20
2018-03-24T04:26:32.822Z,2.10
2018-03-24T04:27:37.211Z,2.10
2018-03-24T04:28:41.655Z,2.10
2018-03-24T04:29:46.100Z,2.10
2018-03-24T04:30:51.254Z,2.10
2018-03-24T04:33:07.358Z,2.10
2018-03-24T04:34:11.701Z,2.10
2018-03-24T04:35:16.268Z,2.10
2018-03-24T04:36:20.823Z,2.10
2018-03-24T04:37:25.305Z,2.10
2018-03-24T04:38:29.688Z,2.10
2018-03-24T04:39:34.004Z,2.10
2018-03-24T04:40:39.380Z,2.10
2018-03-24T04:41:44.800Z,2.20
2018-03-24T04:42:49.201Z,2.10
2018-03-24T04:43:53.915Z,2.00
2018-03-24T04:44:58.520Z,2.00
2018-03-24T04:46:03.230Z,2.00
2018-03-24T04:47:07.792Z,2.00
2018-03-24T04:48:12.485Z,2.10
2018-03-24T04:49:16.998Z,2.10
2018-03-24T04:50:22.703Z,2.10
2018-03-24T04:51:27.085Z,2.10
2018-03-24T04:52:32.249Z,2.10
2018-03-24T04:53:37.620Z,2.10
2018-03-24T04:54:42.325Z,2.10
2018-03-24T04:55:46.629Z,2.10
2018-03-24T04:56:51.146Z,2.20
2018-03-24T04:57:55.662Z,2.10
2018-03-24T04:59:00.099Z,2.10
2018-03-24T05:00:06.283Z,2.10
2018-03-24T05:01:10.651Z,2.10
2018-03-24T05:02:15.707Z,2.10
2018-03-24T05:03:20.313Z,2.20
2018-03-24T05:04:24.725Z,2.20
2018-03-24T05:05:29.853Z,2.10
2018-03-24T05:06:34.376Z,2.10
2018-03-24T05:07:39.103Z,2.10
2018-03-24T05:08:43.548Z,2.20
2018-03-24T05:09:48.073Z,2.30
2018-03-24T05:10:52.650Z,2.20
2018-03-24T05:12:01.283Z,2.20
2018-03-24T05:13:05.960Z,2.20
2018-03-24T05:14:10.439Z,2.30
2018-03-24T05:15:16.175Z,2.30
2018-03-24T05:16:21.259Z,2.30
2018-03-24T05:17:26.403Z,2.40
2018-03-24T05:18:32.148Z,2.40
2018-03-24T05:19:37.401Z,2.50
2018-03-24T05:20:42.882Z,2.60
2018-03-24T05:21:47.842Z,2.60
2018-03-24T05:22:52.431Z,2.60
2018-03-24T05:23:56.862Z,2.50
2018-03-24T05:25:01.671Z,2.60
2018-03-24T05:26:06.647Z,2.60
2018-03-24T05:27:11.198Z,2.60
2018-03-24T05:28:15.774Z,2.70
2018-03-24T05:29:20.624Z,2.70
2018-03-24T05:30:25.561Z,2.70
2018-03-24T05:31:30.163Z,2.70
2018-03-24T05:32:35.174Z,2.70
2018-03-24T05:33:39.934Z,2.70
2018-03-24T05:34:45.441Z,2.70
2018-03-24T05:35:49.974Z,2.70
2018-03-24T05:36:54.754Z,2.70
2018-03-24T05:37:59.571Z,2.70
2018-03-24T05:39:04.538Z,2.70
2018-03-24T05:40:09.848Z,2.80
2018-03-24T05:41:14.740Z,2.80
2018-03-24T05:42:19.572Z,2.80
2018-03-24T05:43:24.456Z,2.90
2018-03-24T05:44:29.086Z,2.90
2018-03-24T05:45:33.685Z,2.90
2018-03-24T05:46:38.340Z,2.80
2018-03-24T05:47:51.173Z,2.90
2018-03-24T05:48:55.677Z,2.90
2018-03-24T05:50:00.831Z,3.00
2018-03-24T05:51:06.615Z,3.10
2018-03-24T05:52:11.064Z,3.10
2018-03-24T05:53:15.717Z,3.20
2018-03-24T05:54:20.205Z,3.20
2018-03-24T05:55:25.582Z,3.20
2018-03-24T05:56:30.145Z,3.20
2018-03-24T05:57:34.680Z,3.30
2018-03-24T05:58:39.486Z,3.30
2018-03-24T05:59:44.784Z,3.40
2018-03-24T06:00:50.230Z,3.40
2018-03-24T06:01:55.254Z,3.50
2018-03-24T06:03:00.065Z,3.50
2018-03-24T06:04:05.394Z,3.60
2018-03-24T06:05:10.776Z,3.60
2018-03-24T06:06:15.699Z,3.60
2018-03-24T06:07:20.885Z,3.60
2018-03-24T06:08:25.829Z,3.60
2018-03-24T06:09:30.773Z,3.60
2018-03-24T06:10:36.455Z,3.70
2018-03-24T06:11:41.323Z,3.60
2018-03-24T06:12:46.521Z,3.70
2018-03-24T06:13:51.452Z,3.70
2018-03-24T06:14:57.016Z,3.80
2018-03-24T06:16:01.590Z,3.80
2018-03-24T06:17:06.706Z,3.80
2018-03-24T06:18:11.636Z,3.80
2018-03-24T06:19:16.764Z,3.80
2018-03-24T06:20:22.337Z,3.80
2018-03-24T06:21:27.177Z,3.80
2018-03-24T06:22:33.175Z,3.70
2018-03-24T06:23:38.208Z,3.60
2018-03-24T06:24:44.037Z,3.80
2018-03-24T06:25:50.227Z,3.80
2018-03-24T06:26:56.102Z,3.90
2018-03-24T06:28:01.760Z,3.80
2018-03-24T06:29:06.919Z,3.90
2018-03-24T06:30:12.377Z,3.90
2018-03-24T06:31:18.185Z,3.70
2018-03-24T06:32:23.786Z,3.70
2018-03-24T06:33:29.419Z,3.80
2018-03-24T06:34:35.065Z,3.90
2018-03-24T06:35:40.325Z,3.80
2018-03-24T06:36:46.783Z,3.90
2018-03-24T06:37:51.747Z,3.90
2018-03-24T06:38:57.062Z,4.00
2018-03-24T06:40:03.808Z,4.00
2018-03-24T06:41:08.887Z,4.00
2018-03-24T06:42:13.998Z,4.00
2018-03-24T06:43:19.129Z,4.00
2018-03-24T06:44:24.499Z,4.10
2018-03-24T06:45:32.890Z,4.30
2018-03-24T06:46:38.034Z,4.30
2018-03-24T06:47:44.335Z,4.50
2018-03-24T06:48:50.307Z,4.40
2018-03-24T06:49:56.438Z,4.40
2018-03-24T06:51:02.015Z,4.40
2018-03-24T06:52:07.261Z,4.40
2018-03-24T06:53:18.709Z,4.40
2018-03-24T06:54:25.061Z,4.50
2018-03-24T06:55:30.317Z,4.50
2018-03-24T06:56:36.908Z,4.70
2018-03-24T06:57:43.119Z,4.60
2018-03-24T06:58:50.546Z,4.70
2018-03-24T06:59:57.100Z,4.70
2018-03-24T07:01:02.481Z,4.80
2018-03-24T07:02:09.359Z,4.90
2018-03-24T07:03:16.265Z,4.90
2018-03-24T07:04:21.528Z,4.90
2018-03-24T07:05:28.319Z,4.90
2018-03-24T07:06:33.690Z,5.00
2018-03-24T07:07:40.068Z,5.00
2018-03-24T07:08:45.921Z,5.10
2018-03-24T07:09:51.572Z,5.10
2018-03-24T07:10:57.327Z,5.20
2018-03-24T07:12:03.384Z,5.30
2018-03-24T07:13:09.050Z,5.30
2018-03-24T07:14:15.219Z,5.40
2018-03-24T07:15:22.759Z,5.40
2018-03-24T07:16:29.191Z,5.40
2018-03-24T07:17:37.226Z,5.40
2018-03-24T07:18:43.973Z,5.50
2018-03-24T07:19:50.331Z,5.50
2018-03-24T07:20:55.823Z,5.50
2018-03-24T07:22:01.763Z,5.60
2018-03-24T07:23:07.481Z,5.70
2018-03-24T07:24:13.150Z,5.70
2018-03-24T07:25:19.643Z,5.80
2018-03-24T07:26:26.348Z,5.90
2018-03-24T07:27:32.159Z,5.90
2018-03-24T07:28:44.100Z,5.90
2018-03-24T07:29:52.032Z,5.90
2018-03-24T07:30:58.168Z,6.10
2018-03-24T07:32:06.105Z,6.10
2018-03-24T07:33:12.387Z,6.10
2018-03-24T07:34:18.388Z,6.20
2018-03-24T07:35:26.592Z,6.30
2018-03-24T07:36:36.895Z,6.30
2018-03-24T07:37:43.119Z,6.40
2018-03-24T07:38:49.263Z,6.40
2018-03-24T07:39:54.644Z,6.50
2018-03-24T07:41:02.006Z,6.60
2018-03-24T07:42:09.334Z,6.60
2018-03-24T07:43:16.233Z,6.70
2018-03-24T07:44:22.527Z,6.70
2018-03-24T07:45:29.384Z,6.80
2018-03-24T07:46:35.570Z,6.80
2018-03-24T07:47:40.715Z,6.80
2018-03-24T07:48:46.856Z,7.00
2018-03-24T07:49:52.314Z,6.90
2018-03-24T07:50:57.464Z,7.00
2018-03-24T07:52:03.869Z,7.10
2018-03-24T07:53:09.319Z,7.20
2018-03-24T07:54:14.467Z,7.20
2018-03-24T07:55:19.487Z,7.30
2018-03-24T07:56:24.880Z,7.40
2018-03-24T07:57:30.098Z,7.40
2018-03-24T07:58:35.363Z,7.40
2018-03-24T07:59:41.191Z,7.40
2018-03-24T08:00:46.190Z,7.40
2018-03-24T08:01:52.364Z,7.50
2018-03-24T08:02:57.902Z,7.50
2018-03-24T08:04:03.416Z,7.60
2018-03-24T08:05:08.799Z,7.60
2018-03-24T08:06:13.969Z,7.60
2018-03-24T08:07:19.113Z,7.60
2018-03-24T08:08:24.651Z,7.60
2018-03-24T08:09:29.995Z,7.70
2018-03-24T08:10:35.364Z,7.80
2018-03-24T08:11:40.689Z,7.80
2018-03-24T08:12:46.081Z,7.90
2018-03-24T08:13:52.073Z,7.90
2018-03-24T08:14:58.334Z,8.00
2018-03-24T08:16:05.120Z,8.00
2018-03-24T08:17:10.704Z,8.00
2018-03-24T08:18:16.541Z,8.10
2018-03-24T08:19:22.340Z,8.20
2018-03-24T08:20:28.858Z,8.30
2018-03-24T08:21:34.403Z,8.30
2018-03-24T08:22:40.570Z,8.40
2018-03-24T08:23:46.377Z,8.40
2018-03-24T08:24:51.633Z,8.40
2018-03-24T08:25:57.706Z,8.50
2018-03-24T08:27:02.877Z,8.50
2018-03-24T08:28:08.602Z,8.60
2018-03-24T08:29:14.844Z,8.60
2018-03-24T08:30:20.362Z,8.70
2018-03-24T08:31:26.696Z,8.70
2018-03-24T08:32:32.618Z,8.80
2018-03-24T08:33:37.992Z,8.80
2018-03-24T08:34:43.297Z,8.80
2018-03-24T08:35:49.292Z,8.70
2018-03-24T08:36:54.534Z,8.70
2018-03-24T08:37:59.891Z,8.70
2018-03-24T08:39:05.324Z,8.60
2018-03-24T08:40:10.614Z,8.50
2018-03-24T08:41:15.984Z,8.50
2018-03-24T08:42:21.148Z,8.50
2018-03-24T08:43:26.621Z,8.60
2018-03-24T08:44:31.846Z,8.60
2018-03-24T08:45:37.334Z,8.60
2018-03-24T08:46:42.951Z,8.60
2018-03-24T08:47:48.102Z,8.60
2018-03-24T08:48:54.143Z,8.70
2018-03-24T08:50:00.430Z,8.80
2018-03-24T08:51:05.782Z,8.80
2018-03-24T08:52:11.318Z,8.80
2018-03-24T08:53:17.197Z,8.90
2018-03-24T08:54:22.669Z,8.90
2018-03-24T08:55:28.108Z,8.90
2018-03-24T08:56:33.506Z,8.90
2018-03-24T08:57:41.070Z,9.00
2018-03-24T08:58:46.362Z,9.00
2018-03-24T08:59:52.398Z,9.00
2018-03-24T09:00:57.829Z,9.10
2018-03-24T09:02:03.320Z,9.20
2018-03-24T09:03:08.592Z,9.20
2018-03-24T09:04:13.944Z,9.20
2018-03-24T09:05:19.090Z,9.10
2018-03-24T09:06:24.355Z,9.00
2018-03-24T09:07:31.075Z,9.00
2018-03-24T09:08:36.210Z,9.00
2018-03-24T09:09:42.173Z,9.10
2018-03-24T09:10:49.969Z,9.00
2018-03-24T09:11:57.768Z,9.00
2018-03-24T09:13:05.642Z,9.10
2018-03-24T09:14:12.934Z,9.10
2018-03-24T09:15:19.140Z,9.10
2018-03-24T09:16:24.376Z,9.20
2018-03-24T09:17:29.490Z,9.30
2018-03-24T09:18:35.304Z,9.30
2018-03-24T09:19:40.430Z,9.40
2018-03-24T09:20:45.745Z,9.40
2018-03-24T09:21:51.663Z,9.40
2018-03-24T09:22:56.680Z,9.40
2018-03-24T09:24:01.967Z,9.40
2018-03-24T09:25:07.159Z,9.40
2018-03-24T09:26:13.652Z,9.50
2018-03-24T09:27:18.824Z,9.50
2018-03-24T09:28:24.923Z,9.60
2018-03-24T09:29:31.037Z,9.50
2018-03-24T09:30:36.274Z,9.60
2018-03-24T09:31:43.438Z,9.70
2018-03-24T09:32:48.630Z,9.60
2018-03-24T09:33:53.785Z,9.70
2018-03-24T09:34:58.964Z,9.80
2018-03-24T09:36:04.394Z,9.90
2018-03-24T09:37:11.437Z,10.00
2018-03-24T09:38:17.688Z,10.10
2018-03-24T09:39:23.952Z,10.10
2018-03-24T09:40:28.987Z,10.10
2018-03-24T09:41:34.561Z,10.20
2018-03-24T09:42:39.739Z,10.30
2018-03-24T09:43:46.076Z,10.40
2018-03-24T09:44:52.153Z,10.50
2018-03-24T09:45:57.478Z,10.50
2018-03-24T09:47:04.120Z,10.70
2018-03-24T09:48:10.968Z,10.70
2018-03-24T09:49:16.144Z,10.70
2018-03-24T09:50:21.494Z,10.80
2018-03-24T09:51:27.297Z,10.90
2018-03-24T09:52:32.562Z,11.00
2018-03-24T09:53:37.965Z,11.10
2018-03-24T09:54:44.199Z,11.10
2018-03-24T09:55:51.402Z,11.30
2018-03-24T09:56:58.026Z,11.30
2018-03-24T09:58:05.941Z,11.40
2018-03-24T09:59:12.932Z,11.60
2018-03-24T10:00:19.162Z,11.50
2018-03-24T10:01:26.389Z,11.60
2018-03-24T10:02:34.336Z,11.60
2018-03-24T10:03:41.491Z,11.60
2018-03-24T10:04:49.680Z,11.60
2018-03-24T10:05:57.848Z,11.60
2018-03-24T10:07:04.766Z,11.60
2018-03-24T10:08:11.406Z,11.80
2018-03-24T10:09:17.384Z,11.80
2018-03-24T10:10:23.807Z,11.90
2018-03-24T10:11:29.690Z,12.00
2018-03-24T10:12:38.448Z,12.20
2018-03-24T10:13:44.837Z,12.30
2018-03-24T10:14:51.926Z,12.40
2018-03-24T10:15:59.407Z,12.40
2018-03-24T10:17:05.503Z,12.50
2018-03-24T10:18:11.005Z,12.60
2018-03-24T10:19:18.131Z,12.50
2018-03-24T10:20:26.154Z,12.60
2018-03-24T10:21:33.295Z,12.60
2018-03-24T10:22:48.383Z,12.80
2018-03-24T10:23:57.007Z,12.80
2018-03-24T10:25:06.432Z,12.80
2018-03-24T10:26:12.485Z,12.90
2018-03-24T10:27:17.661Z,12.90
2018-03-24T10:28:23.202Z,13.00
2018-03-24T10:29:29.461Z,13.00
2018-03-24T10:30:34.735Z,13.00
2018-03-24T10:31:40.054Z,13.00
2018-03-24T10:32:45.827Z,13.20
2018-03-24T10:33:54.916Z,13.10
2018-03-24T10:35:04.180Z,13.30
2018-03-24T10:36:10.058Z,13.20
2018-03-24T10:37:15.822Z,13.40
2018-03-24T10:38:21.073Z,13.30
2018-03-24T10:39:27.884Z,13.50
2018-03-24T10:40:35.468Z,13.60
2018-03-24T10:41:42.978Z,13.70
2018-03-24T10:42:54.761Z,13.60
2018-03-24T10:44:02.182Z,13.70
2018-03-24T10:45:08.065Z,13.80
2018-03-24T10:46:17.089Z,13.90
2018-03-24T10:47:24.810Z,13.70
2018-03-24T10:48:30.387Z,13.70
2018-03-24T10:49:35.297Z,13.70
2018-03-24T10:50:41.567Z,13.80
2018-03-24T10:51:48.253Z,14.00
2018-03-24T10:52:56.447Z,13.90
2018-03-24T10:55:25.174Z,14.00
2018-03-24T10:56:31.575Z,13.90
2018-03-24T10:57:36.800Z,14.00
2018-03-24T10:58:42.105Z,14.10
2018-03-24T10:59:48.105Z,14.00
2018-03-24T11:00:59.209Z,14.00
2018-03-24T11:02:04.708Z,14.00
2018-03-24T11:03:09.828Z,14.10
2018-03-24T11:04:15.100Z,14.10
2018-03-24T11:05:20.344Z,14.10
2018-03-24T11:06:26.005Z,14.10
2018-03-24T11:07:32.859Z,14.20
2018-03-24T11:08:38.969Z,14.20
2018-03-24T11:09:44.545Z,14.20
2018-03-24T11:10:49.696Z,14.20
2018-03-24T11:11:55.379Z,14.40
2018-03-24T11:13:00.253Z,14.40
2018-03-24T11:14:06.326Z,14.60
2018-03-24T11:15:11.473Z,14.50
2018-03-24T11:16:16.796Z,14.50
2018-03-24T11:17:23.493Z,14.60
2018-03-24T11:18:28.558Z,14.60
2018-03-24T11:19:34.343Z,14.60
2018-03-24T11:20:39.475Z,14.60
2018-03-24T11:21:44.671Z,14.70
2018-03-24T11:22:50.208Z,14.80
2018-03-24T11:23:55.495Z,15.00
2018-03-24T11:25:01.218Z,14.80
2018-03-24T11:26:06.713Z,14.80
2018-03-24T11:27:11.904Z,14.90
2018-03-24T11:28:18.818Z,14.90
2018-03-24T11:29:24.125Z,14.90
2018-03-24T11:30:29.141Z,14.80
2018-03-24T11:31:34.346Z,14.90
2018-03-24T11:32:39.517Z,15.00
2018-03-24T11:33:45.462Z,15.00
2018-03-24T11:34:50.303Z,15.00
2018-03-24T11:35:55.248Z,15.00
2018-03-24T11:37:01.421Z,15.10
2018-03-24T11:38:07.023Z,15.00
2018-03-24T11:39:12.107Z,15.10
2018-03-24T11:40:17.135Z,15.10
2018-03-24T11:41:23.601Z,15.10
2018-03-24T11:42:30.142Z,15.30
2018-03-24T11:43:35.226Z,15.30
2018-03-24T11:44:40.365Z,15.30
2018-03-24T11:45:45.512Z,15.30
2018-03-24T11:46:51.308Z,15.30
2018-03-24T11:47:56.362Z,15.30
2018-03-24T11:49:01.509Z,15.30
2018-03-24T11:50:07.542Z,15.40
2018-03-24T11:51:13.550Z,15.60
2018-03-24T11:52:18.801Z,15.60
2018-03-24T11:53:32.553Z,15.90
2018-03-24T11:54:45.188Z,16.60
2018-03-24T11:55:58.628Z,16.50
2018-03-24T11:57:07.359Z,16.80
2018-03-24T11:58:12.516Z,16.80
2018-03-24T11:59:18.476Z,17.10
2018-03-24T12:00:23.571Z,17.10
2018-03-24T12:01:28.749Z,17.30
2018-03-24T12:02:34.123Z,17.50
2018-03-24T12:03:39.369Z,17.70
2018-03-24T12:04:46.148Z,17.90
2018-03-24T12:05:51.091Z,17.80
2018-03-24T12:06:56.769Z,17.70
2018-03-24T12:08:02.117Z,17.60
2018-03-24T12:09:08.293Z,17.40
2018-03-24T12:10:13.341Z,17.40
2018-03-24T12:11:20.373Z,17.20
2018-03-24T12:12:25.577Z,17.00
2018-03-24T12:13:33.574Z,16.70
2018-03-24T12:14:39.435Z,16.30
2018-03-24T12:15:45.857Z,16.20
2018-03-24T12:16:51.302Z,16.10
2018-03-24T12:17:56.370Z,16.10
2018-03-24T12:19:03.798Z,16.10
2018-03-24T12:20:08.967Z,16.10
2018-03-24T12:21:16.512Z,16.00
2018-03-24T12:22:21.484Z,16.00
2018-03-24T12:23:27.849Z,16.00
2018-03-24T12:24:33.329Z,16.00
2018-03-24T12:25:39.147Z,15.80
2018-03-24T12:26:43.966Z,15.80
2018-03-24T12:27:49.241Z,15.60
2018-03-24T12:28:54.921Z,15.70
2018-03-24T12:30:00.892Z,15.70
2018-03-24T12:31:05.900Z,15.90
2018-03-24T12:32:11.354Z,16.00
2018-03-24T12:33:16.498Z,16.30
2018-03-24T12:34:21.649Z,16.30
2018-03-24T12:35:27.875Z,16.20
2018-03-24T12:36:33.311Z,16.20
2018-03-24T12:37:38.294Z,16.10
2018-03-24T12:38:43.572Z,16.00
2018-03-24T12:39:50.536Z,15.90
2018-03-24T12:40:56.040Z,15.90
2018-03-24T12:42:02.039Z,16.10
2018-03-24T12:43:07.530Z,16.10
2018-03-24T12:44:12.964Z,16.00
2018-03-24T12:45:18.701Z,16.00
2018-03-24T12:46:23.996Z,15.90
2018-03-24T12:47:29.767Z,15.80
2018-03-24T12:48:35.672Z,15.70
2018-03-24T12:49:41.206Z,15.80
2018-03-24T12:50:46.138Z,15.80
2018-03-24T12:51:51.130Z,15.80
2018-03-24T12:52:56.997Z,15.50
2018-03-24T12:54:02.077Z,15.50
2018-03-24T12:55:08.043Z,15.40
2018-03-24T12:56:14.755Z,15.30
2018-03-24T12:57:20.241Z,15.30
2018-03-24T12:58:27.602Z,15.50
2018-03-24T12:59:32.610Z,15.50
2018-03-24T13:00:38.622Z,16.10
2018-03-24T13:01:44.020Z,16.10
2018-03-24T13:02:49.507Z,16.20
2018-03-24T13:03:55.234Z,16.50
2018-03-24T13:05:00.321Z,16.50
2018-03-24T13:06:08.369Z,16.60
2018-03-24T13:07:13.369Z,16.50
2018-03-24T13:08:18.322Z,16.50
2018-03-24T13:09:25.569Z,16.50
2018-03-24T13:10:34.036Z,16.60
2018-03-24T13:11:40.770Z,16.50
2018-03-24T13:12:45.758Z,16.50
2018-03-24T13:13:53.207Z,16.40
2018-03-24T13:15:13.230Z,16.30
2018-03-24T13:16:27.505Z,16.30
2018-03-24T13:17:33.433Z,16.40
2018-03-24T13:18:38.398Z,16.30
2018-03-24T13:19:44.770Z,15.90
2018-03-24T13:20:51.027Z,15.90
2018-03-24T13:21:56.010Z,15.80
2018-03-24T13:23:01.978Z,15.70
2018-03-24T13:24:07.712Z,15.70
2018-03-24T13:25:13.372Z,15.70
2018-03-24T13:26:20.480Z,15.70
2018-03-24T13:27:25.646Z,15.80
2018-03-24T13:28:30.717Z,15.90
2018-03-24T13:29:36.337Z,16.00
2018-03-24T13:30:41.896Z,16.00
2018-03-24T13:31:49.932Z,16.20
2018-03-24T13:32:55.960Z,16.30
2018-03-24T13:34:02.965Z,16.50
2018-03-24T13:35:10.496Z,16.50
2018-03-24T13:36:19.317Z,16.50
2018-03-24T13:37:24.279Z,16.50
2018-03-24T13:38:30.790Z,16.80
2018-03-24T13:39:35.791Z,16.70
2018-03-24T13:40:40.719Z,16.90
2018-03-24T13:41:45.840Z,16.90
2018-03-24T13:42:51.933Z,17.00
2018-03-24T13:43:57.399Z,17.10
2018-03-24T13:45:03.143Z,17.10
2018-03-24T13:46:08.322Z,17.00
2018-03-24T13:47:13.300Z,16.80
2018-03-24T13:48:18.456Z,16.60
2018-03-24T13:49:23.651Z,16.60
2018-03-24T13:50:30.077Z,16.50
2018-03-24T13:51:36.056Z,16.40
2018-03-24T13:52:41.628Z,16.40
2018-03-24T13:53:46.850Z,16.20
2018-03-24T13:54:52.093Z,16.10
2018-03-24T13:55:57.146Z,15.90
2018-03-24T13:57:02.454Z,15.70
2018-03-24T13:58:07.740Z,15.70
2018-03-24T13:59:13.124Z,15.60
2018-03-24T14:00:18.416Z,15.70
2018-03-24T14:01:23.638Z,15.90
2018-03-24T14:02:29.639Z,16.00
2018-03-24T14:03:34.687Z,16.00
2018-03-24T14:04:40.952Z,15.80
2018-03-24T14:05:46.352Z,15.70
2018-03-24T14:06:51.454Z,15.40
2018-03-24T14:07:56.602Z,15.20
2018-03-24T14:09:01.738Z,15.10
2018-03-24T14:10:06.948Z,15.10
2018-03-24T14:11:12.495Z,15.20
2018-03-24T14:12:18.346Z,15.20
2018-03-24T14:13:24.143Z,15.20
2018-03-24T14:14:29.111Z,15.10
2018-03-24T14:15:35.699Z,14.80
2018-03-24T14:16:40.702Z,14.80
2018-03-24T14:17:46.319Z,14.90
2018-03-24T14:18:51.355Z,14.80
2018-03-24T14:19:57.088Z,15.00
2018-03-24T14:21:02.112Z,15.00
2018-03-24T14:22:07.443Z,15.20
2018-03-24T14:23:12.270Z,15.40
2018-03-24T14:24:18.081Z,15.60
2018-03-24T14:25:23.157Z,15.60
2018-03-24T14:26:28.008Z,15.70
2018-03-24T14:27:34.619Z,15.80
2018-03-24T14:28:40.274Z,15.90